sensor_id;sensor_type;location;lat;lon;timestamp;P1;durP1;ratioP1;P2;durP2;ratioP2
2438;SDS011;14509;47.992;7.848;2024-03-08T00:00:26;22.30;;;13.75;;
2438;SDS011;14509;47.992;7.848;2024-03-08T00:02:28;21.60;;;14.05;;
2438;SDS011;14509;47.992;7.848;2024-03-08T00:04:30;22.60;;;14.27;;
2438;SDS011;14509;47.992;7.848;2024-03-08T00:06:32;22.42;;;14.15;;
2438;SDS011;14509;47.992;7.848;2024-03-08T00:08:33;21.83;;;14.27;;
2438;SDS011;14509;47.992;7.848;2024-03-08T00:10:37;23.05;;;15.02;;
2438;SDS011;14509;47.992;7.848;2024-03-08T00:12:39;22.08;;;13.20;;
2438;SDS011;14509;47.992;7.848;2024-03-08T00:14:42;23.88;;;14.82;;
2438;SDS011;14509;47.992;7.848;2024-03-08T00:16:45;19.48;;;13.70;;
2438;SDS011;14509;47.992;7.848;2024-03-08T00:18:47;21.55;;;13.70;;
2438;SDS011;14509;47.992;7.848;2024-03-08T00:20:49;21.65;;;14.00;;
2438;SDS011;14509;47.992;7.848;2024-03-08T00:22:51;21.08;;;14.00;;
2438;SDS011;14509;47.992;7.848;2024-03-08T00:24:53;23.88;;;14.00;;
2438;SDS011;14509;47.992;7.848;2024-03-08T00:26:57;26.23;;;14.00;;
2438;SDS011;14509;47.992;7.848;2024-03-08T00:28:59;21.30;;;14.27;;
2438;SDS011;14509;47.992;7.848;2024-03-08T00:30:59;23.53;;;14.60;;
2438;SDS011;14509;47.992;7.848;2024-03-08T00:33:01;21.50;;;14.30;;
2438;SDS011;14509;47.992;7.848;2024-03-08T00:35:04;22.65;;;13.38;;
2438;SDS011;14509;47.992;7.848;2024-03-08T00:37:21;24.63;;;14.10;;
2438;SDS011;14509;47.992;7.848;2024-03-08T00:39:23;23.23;;;14.77;;
2438;SDS011;14509;47.992;7.848;2024-03-08T00:41:25;21.65;;;13.75;;
2438;SDS011;14509;47.992;7.848;2024-03-08T00:43:29;21.00;;;13.80;;
2438;SDS011;14509;47.992;7.848;2024-03-08T00:45:31;20.25;;;12.75;;
2438;SDS011;14509;47.992;7.848;2024-03-08T00:47:33;21.65;;;13.43;;
2438;SDS011;14509;47.992;7.848;2024-03-08T00:49:35;20.30;;;12.77;;
2438;SDS011;14509;47.992;7.848;2024-03-08T00:51:38;21.20;;;13.90;;
2438;SDS011;14509;47.992;7.848;2024-03-08T00:53:40;25.27;;;15.32;;
2438;SDS011;14509;47.992;7.848;2024-03-08T00:55:43;23.20;;;14.25;;
2438;SDS011;14509;47.992;7.848;2024-03-08T00:57:46;22.88;;;14.38;;
2438;SDS011;14509;47.992;7.848;2024-03-08T00:59:49;21.58;;;13.63;;
2438;SDS011;14509;47.992;7.848;2024-03-08T01:01:52;21.33;;;14.15;;
2438;SDS011;14509;47.992;7.848;2024-03-08T01:03:54;21.92;;;14.02;;
2438;SDS011;14509;47.992;7.848;2024-03-08T01:05:57;21.40;;;14.52;;
2438;SDS011;14509;47.992;7.848;2024-03-08T01:07:59;21.92;;;15.00;;
2438;SDS011;14509;47.992;7.848;2024-03-08T01:10:03;18.00;;;12.95;;
2438;SDS011;14509;47.992;7.848;2024-03-08T01:12:09;23.17;;;13.45;;
2438;SDS011;14509;47.992;7.848;2024-03-08T01:14:11;24.73;;;14.65;;
2438;SDS011;14509;47.992;7.848;2024-03-08T01:16:14;22.67;;;14.15;;
2438;SDS011;14509;47.992;7.848;2024-03-08T01:18:17;21.58;;;14.68;;
2438;SDS011;14509;47.992;7.848;2024-03-08T01:20:19;20.03;;;14.00;;
2438;SDS011;14509;47.992;7.848;2024-03-08T01:22:21;22.40;;;13.80;;
2438;SDS011;14509;47.992;7.848;2024-03-08T01:24:23;23.33;;;14.23;;
2438;SDS011;14509;47.992;7.848;2024-03-08T01:26:25;19.85;;;13.70;;
2438;SDS011;14509;47.992;7.848;2024-03-08T01:28:27;20.70;;;13.57;;
2438;SDS011;14509;47.992;7.848;2024-03-08T01:30:28;24.25;;;13.73;;
2438;SDS011;14509;47.992;7.848;2024-03-08T01:32:34;20.95;;;13.40;;
2438;SDS011;14509;47.992;7.848;2024-03-08T01:34:36;19.83;;;14.25;;
2438;SDS011;14509;47.992;7.848;2024-03-08T01:36:39;21.47;;;13.10;;
2438;SDS011;14509;47.992;7.848;2024-03-08T01:38:41;19.92;;;13.35;;
2438;SDS011;14509;47.992;7.848;2024-03-08T01:40:43;22.98;;;14.27;;
2438;SDS011;14509;47.992;7.848;2024-03-08T01:42:45;21.20;;;13.00;;
2438;SDS011;14509;47.992;7.848;2024-03-08T01:44:48;21.80;;;14.48;;
2438;SDS011;14509;47.992;7.848;2024-03-08T01:46:49;25.17;;;15.20;;
2438;SDS011;14509;47.992;7.848;2024-03-08T01:48:54;21.98;;;14.30;;
2438;SDS011;14509;47.992;7.848;2024-03-08T01:50:57;18.47;;;13.00;;
2438;SDS011;14509;47.992;7.848;2024-03-08T01:53:00;22.67;;;13.52;;
2438;SDS011;14509;47.992;7.848;2024-03-08T01:55:02;21.88;;;13.65;;
2438;SDS011;14509;47.992;7.848;2024-03-08T01:57:07;23.98;;;13.98;;
2438;SDS011;14509;47.992;7.848;2024-03-08T01:59:09;23.90;;;14.07;;
2438;SDS011;14509;47.992;7.848;2024-03-08T02:01:11;23.90;;;14.65;;
2438;SDS011;14509;47.992;7.848;2024-03-08T02:03:14;22.05;;;14.15;;
2438;SDS011;14509;47.992;7.848;2024-03-08T02:05:17;23.90;;;14.75;;
2438;SDS011;14509;47.992;7.848;2024-03-08T02:07:19;22.80;;;13.97;;
2438;SDS011;14509;47.992;7.848;2024-03-08T02:09:22;24.02;;;14.27;;
2438;SDS011;14509;47.992;7.848;2024-03-08T02:11:24;22.38;;;13.60;;
2438;SDS011;14509;47.992;7.848;2024-03-08T02:13:26;23.75;;;14.70;;
2438;SDS011;14509;47.992;7.848;2024-03-08T02:17:51;23.30;;;15.70;;
2438;SDS011;14509;47.992;7.848;2024-03-08T02:19:54;22.58;;;14.90;;
2438;SDS011;14509;47.992;7.848;2024-03-08T02:21:57;25.50;;;15.52;;
2438;SDS011;14509;47.992;7.848;2024-03-08T02:23:59;22.75;;;15.13;;
2438;SDS011;14509;47.992;7.848;2024-03-08T02:26:01;27.50;;;15.38;;
2438;SDS011;14509;47.992;7.848;2024-03-08T02:28:04;20.70;;;14.03;;
2438;SDS011;14509;47.992;7.848;2024-03-08T02:30:08;23.67;;;13.88;;
2438;SDS011;14509;47.992;7.848;2024-03-08T02:32:12;24.52;;;14.18;;
2438;SDS011;14509;47.992;7.848;2024-03-08T02:34:14;25.58;;;15.00;;
2438;SDS011;14509;47.992;7.848;2024-03-08T02:36:16;21.88;;;14.43;;
2438;SDS011;14509;47.992;7.848;2024-03-08T02:38:19;23.03;;;14.80;;
2438;SDS011;14509;47.992;7.848;2024-03-08T02:40:21;22.85;;;14.75;;
2438;SDS011;14509;47.992;7.848;2024-03-08T02:42:23;20.70;;;14.32;;
2438;SDS011;14509;47.992;7.848;2024-03-08T02:44:25;23.77;;;14.68;;
2438;SDS011;14509;47.992;7.848;2024-03-08T02:46:27;24.90;;;15.25;;
2438;SDS011;14509;47.992;7.848;2024-03-08T02:48:30;21.95;;;15.50;;
2438;SDS011;14509;47.992;7.848;2024-03-08T02:50:31;21.40;;;14.10;;
2438;SDS011;14509;47.992;7.848;2024-03-08T02:52:33;22.80;;;13.57;;
2438;SDS011;14509;47.992;7.848;2024-03-08T02:54:36;23.48;;;13.90;;
2438;SDS011;14509;47.992;7.848;2024-03-08T02:56:38;25.10;;;15.27;;
2438;SDS011;14509;47.992;7.848;2024-03-08T02:58:41;23.60;;;15.38;;
2438;SDS011;14509;47.992;7.848;2024-03-08T03:00:43;23.75;;;15.20;;
2438;SDS011;14509;47.992;7.848;2024-03-08T03:02:45;23.98;;;15.60;;
2438;SDS011;14509;47.992;7.848;2024-03-08T03:04:47;25.13;;;15.30;;
2438;SDS011;14509;47.992;7.848;2024-03-08T03:06:49;22.90;;;13.70;;
2438;SDS011;14509;47.992;7.848;2024-03-08T03:08:51;25.08;;;14.88;;
2438;SDS011;14509;47.992;7.848;2024-03-08T03:10:54;24.45;;;15.07;;
2438;SDS011;14509;47.992;7.848;2024-03-08T03:12:56;24.02;;;15.00;;
2438;SDS011;14509;47.992;7.848;2024-03-08T03:14:58;24.17;;;14.32;;
2438;SDS011;14509;47.992;7.848;2024-03-08T03:17:00;24.63;;;14.48;;
2438;SDS011;14509;47.992;7.848;2024-03-08T03:19:03;23.73;;;14.60;;
2438;SDS011;14509;47.992;7.848;2024-03-08T03:21:05;24.08;;;14.15;;
2438;SDS011;14509;47.992;7.848;2024-03-08T03:23:07;23.30;;;14.68;;
2438;SDS011;14509;47.992;7.848;2024-03-08T03:25:09;24.40;;;14.60;;
2438;SDS011;14509;47.992;7.848;2024-03-08T03:27:12;22.38;;;14.77;;
2438;SDS011;14509;47.992;7.848;2024-03-08T03:29:15;24.77;;;14.43;;
2438;SDS011;14509;47.992;7.848;2024-03-08T03:31:18;25.20;;;16.05;;
2438;SDS011;14509;47.992;7.848;2024-03-08T03:33:20;24.77;;;14.38;;
2438;SDS011;14509;47.992;7.848;2024-03-08T03:35:22;19.90;;;13.98;;
2438;SDS011;14509;47.992;7.848;2024-03-08T03:37:24;21.92;;;14.27;;
2438;SDS011;14509;47.992;7.848;2024-03-08T03:39:26;23.33;;;15.80;;
2438;SDS011;14509;47.992;7.848;2024-03-08T03:41:31;22.23;;;13.73;;
2438;SDS011;14509;47.992;7.848;2024-03-08T03:43:35;22.85;;;14.32;;
2438;SDS011;14509;47.992;7.848;2024-03-08T03:45:39;19.10;;;13.18;;
2438;SDS011;14509;47.992;7.848;2024-03-08T03:47:42;19.02;;;13.70;;
2438;SDS011;14509;47.992;7.848;2024-03-08T03:49:44;21.30;;;13.03;;
2438;SDS011;14509;47.992;7.848;2024-03-08T03:51:46;19.85;;;13.80;;
2438;SDS011;14509;47.992;7.848;2024-03-08T03:53:48;20.80;;;13.57;;
2438;SDS011;14509;47.992;7.848;2024-03-08T03:55:50;22.02;;;13.25;;
2438;SDS011;14509;47.992;7.848;2024-03-08T03:57:50;22.97;;;13.40;;
2438;SDS011;14509;47.992;7.848;2024-03-08T03:59:54;21.15;;;13.40;;
2438;SDS011;14509;47.992;7.848;2024-03-08T04:01:57;20.50;;;13.53;;
2438;SDS011;14509;47.992;7.848;2024-03-08T04:03:59;21.13;;;13.80;;
2438;SDS011;14509;47.992;7.848;2024-03-08T04:06:00;22.60;;;14.75;;
2438;SDS011;14509;47.992;7.848;2024-03-08T04:08:02;23.77;;;13.50;;
2438;SDS011;14509;47.992;7.848;2024-03-08T04:10:03;22.48;;;14.65;;
2438;SDS011;14509;47.992;7.848;2024-03-08T04:12:06;20.50;;;13.53;;
2438;SDS011;14509;47.992;7.848;2024-03-08T04:14:09;21.70;;;13.95;;
2438;SDS011;14509;47.992;7.848;2024-03-08T04:16:13;20.10;;;13.30;;
2438;SDS011;14509;47.992;7.848;2024-03-08T04:18:15;21.73;;;13.48;;
2438;SDS011;14509;47.992;7.848;2024-03-08T04:20:16;20.58;;;12.63;;
2438;SDS011;14509;47.992;7.848;2024-03-08T04:22:17;22.08;;;13.68;;
2438;SDS011;14509;47.992;7.848;2024-03-08T04:24:19;24.27;;;14.85;;
2438;SDS011;14509;47.992;7.848;2024-03-08T04:26:21;22.67;;;13.27;;
2438;SDS011;14509;47.992;7.848;2024-03-08T04:28:23;22.15;;;13.38;;
2438;SDS011;14509;47.992;7.848;2024-03-08T04:30:25;23.88;;;14.70;;
2438;SDS011;14509;47.992;7.848;2024-03-08T04:32:29;20.33;;;12.47;;
2438;SDS011;14509;47.992;7.848;2024-03-08T04:34:32;20.83;;;14.10;;
2438;SDS011;14509;47.992;7.848;2024-03-08T04:36:34;21.95;;;13.93;;
2438;SDS011;14509;47.992;7.848;2024-03-08T04:38:36;21.42;;;14.55;;
2438;SDS011;14509;47.992;7.848;2024-03-08T04:40:41;24.00;;;14.32;;
2438;SDS011;14509;47.992;7.848;2024-03-08T04:42:41;24.63;;;14.48;;
2438;SDS011;14509;47.992;7.848;2024-03-08T04:44:44;20.60;;;13.80;;
2438;SDS011;14509;47.992;7.848;2024-03-08T04:46:45;21.10;;;13.52;;
2438;SDS011;14509;47.992;7.848;2024-03-08T04:48:49;23.98;;;14.50;;
2438;SDS011;14509;47.992;7.848;2024-03-08T04:50:51;23.10;;;14.18;;
2438;SDS011;14509;47.992;7.848;2024-03-08T04:52:53;20.73;;;13.60;;
2438;SDS011;14509;47.992;7.848;2024-03-08T04:54:55;20.63;;;14.57;;
2438;SDS011;14509;47.992;7.848;2024-03-08T04:56:57;21.05;;;12.85;;
2438;SDS011;14509;47.992;7.848;2024-03-08T04:59:00;21.70;;;13.27;;
2438;SDS011;14509;47.992;7.848;2024-03-08T05:01:01;19.90;;;13.27;;
2438;SDS011;14509;47.992;7.848;2024-03-08T05:03:02;18.83;;;12.82;;
2438;SDS011;14509;47.992;7.848;2024-03-08T05:05:06;20.27;;;13.15;;
2438;SDS011;14509;47.992;7.848;2024-03-08T05:07:09;21.70;;;13.02;;
2438;SDS011;14509;47.992;7.848;2024-03-08T05:09:11;19.85;;;12.80;;
2438;SDS011;14509;47.992;7.848;2024-03-08T05:11:15;21.20;;;12.85;;
2438;SDS011;14509;47.992;7.848;2024-03-08T05:13:16;21.53;;;13.60;;
2438;SDS011;14509;47.992;7.848;2024-03-08T05:15:19;20.98;;;12.80;;
2438;SDS011;14509;47.992;7.848;2024-03-08T05:17:21;21.25;;;12.50;;
2438;SDS011;14509;47.992;7.848;2024-03-08T05:19:24;21.48;;;12.48;;
2438;SDS011;14509;47.992;7.848;2024-03-08T05:21:27;19.75;;;12.65;;
2438;SDS011;14509;47.992;7.848;2024-03-08T05:23:29;22.20;;;13.70;;
2438;SDS011;14509;47.992;7.848;2024-03-08T05:25:31;22.30;;;13.50;;
2438;SDS011;14509;47.992;7.848;2024-03-08T05:27:32;22.50;;;13.38;;
2438;SDS011;14509;47.992;7.848;2024-03-08T05:29:34;18.77;;;12.93;;
2438;SDS011;14509;47.992;7.848;2024-03-08T05:31:38;23.98;;;13.68;;
2438;SDS011;14509;47.992;7.848;2024-03-08T05:33:46;20.25;;;13.63;;
2438;SDS011;14509;47.992;7.848;2024-03-08T05:35:47;23.75;;;13.75;;
2438;SDS011;14509;47.992;7.848;2024-03-08T05:37:50;18.13;;;12.35;;
2438;SDS011;14509;47.992;7.848;2024-03-08T05:39:52;22.05;;;13.57;;
2438;SDS011;14509;47.992;7.848;2024-03-08T05:41:55;24.80;;;13.48;;
2438;SDS011;14509;47.992;7.848;2024-03-08T05:43:57;21.48;;;13.07;;
2438;SDS011;14509;47.992;7.848;2024-03-08T05:45:58;22.40;;;12.60;;
2438;SDS011;14509;47.992;7.848;2024-03-08T05:48:00;20.10;;;12.77;;
2438;SDS011;14509;47.992;7.848;2024-03-08T05:50:02;24.92;;;14.73;;
2438;SDS011;14509;47.992;7.848;2024-03-08T05:52:04;21.73;;;13.50;;
2438;SDS011;14509;47.992;7.848;2024-03-08T05:54:08;21.08;;;14.48;;
2438;SDS011;14509;47.992;7.848;2024-03-08T05:56:11;20.77;;;13.13;;
2438;SDS011;14509;47.992;7.848;2024-03-08T05:58:13;20.88;;;13.70;;
2438;SDS011;14509;47.992;7.848;2024-03-08T06:00:15;22.63;;;13.60;;
2438;SDS011;14509;47.992;7.848;2024-03-08T06:02:19;24.48;;;14.32;;
2438;SDS011;14509;47.992;7.848;2024-03-08T06:04:21;21.60;;;13.38;;
2438;SDS011;14509;47.992;7.848;2024-03-08T06:06:23;21.67;;;14.15;;
2438;SDS011;14509;47.992;7.848;2024-03-08T06:08:24;22.40;;;14.35;;
2438;SDS011;14509;47.992;7.848;2024-03-08T06:10:31;19.80;;;13.13;;
2438;SDS011;14509;47.992;7.848;2024-03-08T06:12:33;22.95;;;15.27;;
2438;SDS011;14509;47.992;7.848;2024-03-08T06:14:40;22.23;;;14.37;;
2438;SDS011;14509;47.992;7.848;2024-03-08T06:16:42;22.58;;;14.00;;
2438;SDS011;14509;47.992;7.848;2024-03-08T06:18:43;22.40;;;14.30;;
2438;SDS011;14509;47.992;7.848;2024-03-08T06:20:46;25.92;;;15.38;;
2438;SDS011;14509;47.992;7.848;2024-03-08T06:22:48;23.48;;;14.70;;
2438;SDS011;14509;47.992;7.848;2024-03-08T06:24:50;20.57;;;13.37;;
2438;SDS011;14509;47.992;7.848;2024-03-08T06:26:55;21.77;;;14.35;;
2438;SDS011;14509;47.992;7.848;2024-03-08T06:28:57;20.58;;;13.40;;
2438;SDS011;14509;47.992;7.848;2024-03-08T06:30:58;20.20;;;12.82;;
2438;SDS011;14509;47.992;7.848;2024-03-08T06:33:00;23.97;;;13.67;;
2438;SDS011;14509;47.992;7.848;2024-03-08T06:35:02;20.13;;;12.75;;
2438;SDS011;14509;47.992;7.848;2024-03-08T06:37:06;21.80;;;13.63;;
2438;SDS011;14509;47.992;7.848;2024-03-08T06:39:08;20.92;;;14.38;;
2438;SDS011;14509;47.992;7.848;2024-03-08T06:41:10;21.35;;;13.40;;
2438;SDS011;14509;47.992;7.848;2024-03-08T06:43:16;20.42;;;13.60;;
2438;SDS011;14509;47.992;7.848;2024-03-08T06:45:18;20.95;;;11.98;;
2438;SDS011;14509;47.992;7.848;2024-03-08T06:47:21;19.92;;;13.13;;
2438;SDS011;14509;47.992;7.848;2024-03-08T06:49:25;20.48;;;12.25;;
2438;SDS011;14509;47.992;7.848;2024-03-08T06:51:27;22.30;;;14.30;;
2438;SDS011;14509;47.992;7.848;2024-03-08T06:53:29;21.08;;;12.65;;
2438;SDS011;14509;47.992;7.848;2024-03-08T06:55:31;20.00;;;13.52;;
2438;SDS011;14509;47.992;7.848;2024-03-08T06:57:34;19.77;;;13.07;;
2438;SDS011;14509;47.992;7.848;2024-03-08T06:59:37;19.83;;;12.30;;
2438;SDS011;14509;47.992;7.848;2024-03-08T07:01:38;21.88;;;12.57;;
2438;SDS011;14509;47.992;7.848;2024-03-08T07:03:41;22.25;;;13.57;;
2438;SDS011;14509;47.992;7.848;2024-03-08T07:05:44;21.58;;;12.30;;
2438;SDS011;14509;47.992;7.848;2024-03-08T07:07:46;17.75;;;12.27;;
2438;SDS011;14509;47.992;7.848;2024-03-08T07:09:49;19.83;;;13.93;;
2438;SDS011;14509;47.992;7.848;2024-03-08T07:11:51;20.93;;;12.93;;
2438;SDS011;14509;47.992;7.848;2024-03-08T07:13:54;21.23;;;13.10;;
2438;SDS011;14509;47.992;7.848;2024-03-08T07:15:58;21.20;;;13.82;;
2438;SDS011;14509;47.992;7.848;2024-03-08T07:18:01;24.50;;;14.10;;
2438;SDS011;14509;47.992;7.848;2024-03-08T07:20:03;21.60;;;12.80;;
2438;SDS011;14509;47.992;7.848;2024-03-08T07:22:11;20.27;;;12.95;;
2438;SDS011;14509;47.992;7.848;2024-03-08T07:24:13;21.23;;;13.00;;
2438;SDS011;14509;47.992;7.848;2024-03-08T07:26:32;22.25;;;14.77;;
2438;SDS011;14509;47.992;7.848;2024-03-08T07:28:34;19.38;;;13.40;;
2438;SDS011;14509;47.992;7.848;2024-03-08T07:30:36;20.65;;;13.40;;
2438;SDS011;14509;47.992;7.848;2024-03-08T07:32:59;19.15;;;12.27;;
2438;SDS011;14509;47.992;7.848;2024-03-08T07:35:02;20.67;;;12.68;;
2438;SDS011;14509;47.992;7.848;2024-03-08T07:37:05;16.08;;;11.30;;
2438;SDS011;14509;47.992;7.848;2024-03-08T07:39:11;18.67;;;12.25;;
2438;SDS011;14509;47.992;7.848;2024-03-08T07:41:14;21.67;;;12.80;;
2438;SDS011;14509;47.992;7.848;2024-03-08T07:43:16;16.95;;;11.30;;
2438;SDS011;14509;47.992;7.848;2024-03-08T07:45:18;17.55;;;11.65;;
2438;SDS011;14509;47.992;7.848;2024-03-08T07:47:19;17.83;;;11.85;;
2438;SDS011;14509;47.992;7.848;2024-03-08T07:49:22;17.17;;;11.50;;
2438;SDS011;14509;47.992;7.848;2024-03-08T07:51:24;17.33;;;12.00;;
2438;SDS011;14509;47.992;7.848;2024-03-08T07:53:26;18.83;;;12.57;;
2438;SDS011;14509;47.992;7.848;2024-03-08T07:55:28;20.20;;;11.23;;
2438;SDS011;14509;47.992;7.848;2024-03-08T07:57:31;20.33;;;12.90;;
2438;SDS011;14509;47.992;7.848;2024-03-08T07:59:33;18.02;;;13.43;;
2438;SDS011;14509;47.992;7.848;2024-03-08T08:01:35;21.60;;;13.30;;
2438;SDS011;14509;47.992;7.848;2024-03-08T08:03:37;17.95;;;11.65;;
2438;SDS011;14509;47.992;7.848;2024-03-08T08:05:40;20.33;;;13.32;;
2438;SDS011;14509;47.992;7.848;2024-03-08T08:07:43;19.02;;;13.05;;
2438;SDS011;14509;47.992;7.848;2024-03-08T08:09:44;20.77;;;14.32;;
2438;SDS011;14509;47.992;7.848;2024-03-08T08:11:46;19.60;;;13.70;;
2438;SDS011;14509;47.992;7.848;2024-03-08T08:13:48;21.33;;;14.23;;
2438;SDS011;14509;47.992;7.848;2024-03-08T08:15:50;23.73;;;14.73;;
2438;SDS011;14509;47.992;7.848;2024-03-08T08:17:52;27.52;;;16.75;;
2438;SDS011;14509;47.992;7.848;2024-03-08T08:19:53;22.70;;;15.05;;
2438;SDS011;14509;47.992;7.848;2024-03-08T08:21:56;25.85;;;16.65;;
2438;SDS011;14509;47.992;7.848;2024-03-08T08:23:58;23.23;;;16.33;;
2438;SDS011;14509;47.992;7.848;2024-03-08T08:26:00;28.52;;;16.85;;
2438;SDS011;14509;47.992;7.848;2024-03-08T08:28:03;24.98;;;15.82;;
2438;SDS011;14509;47.992;7.848;2024-03-08T08:30:05;26.60;;;15.48;;
2438;SDS011;14509;47.992;7.848;2024-03-08T08:32:08;22.50;;;15.77;;
2438;SDS011;14509;47.992;7.848;2024-03-08T08:34:10;25.53;;;15.77;;
2438;SDS011;14509;47.992;7.848;2024-03-08T08:36:13;20.98;;;14.35;;
2438;SDS011;14509;47.992;7.848;2024-03-08T08:38:16;25.33;;;15.00;;
2438;SDS011;14509;47.992;7.848;2024-03-08T08:40:17;23.17;;;14.88;;
2438;SDS011;14509;47.992;7.848;2024-03-08T08:42:19;23.27;;;15.35;;
2438;SDS011;14509;47.992;7.848;2024-03-08T08:44:21;24.35;;;15.05;;
2438;SDS011;14509;47.992;7.848;2024-03-08T08:46:23;23.00;;;14.00;;
2438;SDS011;14509;47.992;7.848;2024-03-08T08:48:25;19.57;;;13.57;;
2438;SDS011;14509;47.992;7.848;2024-03-08T08:50:28;21.25;;;14.25;;
2438;SDS011;14509;47.992;7.848;2024-03-08T08:52:30;18.60;;;14.27;;
2438;SDS011;14509;47.992;7.848;2024-03-08T08:54:33;20.13;;;14.65;;
2438;SDS011;14509;47.992;7.848;2024-03-08T08:56:34;20.00;;;13.57;;
2438;SDS011;14509;47.992;7.848;2024-03-08T08:58:36;21.98;;;15.18;;
2438;SDS011;14509;47.992;7.848;2024-03-08T09:00:37;22.80;;;14.15;;
2438;SDS011;14509;47.992;7.848;2024-03-08T09:02:39;19.40;;;12.80;;
2438;SDS011;14509;47.992;7.848;2024-03-08T09:04:41;24.23;;;13.38;;
2438;SDS011;14509;47.992;7.848;2024-03-08T09:06:43;20.20;;;13.00;;
2438;SDS011;14509;47.992;7.848;2024-03-08T09:08:45;18.48;;;13.27;;
2438;SDS011;14509;47.992;7.848;2024-03-08T09:10:48;21.40;;;13.60;;
2438;SDS011;14509;47.992;7.848;2024-03-08T09:12:51;18.60;;;12.73;;
2438;SDS011;14509;47.992;7.848;2024-03-08T09:14:53;20.95;;;13.20;;
2438;SDS011;14509;47.992;7.848;2024-03-08T09:16:55;18.13;;;12.48;;
2438;SDS011;14509;47.992;7.848;2024-03-08T09:18:57;19.83;;;12.77;;
2438;SDS011;14509;47.992;7.848;2024-03-08T09:20:59;19.20;;;12.57;;
2438;SDS011;14509;47.992;7.848;2024-03-08T09:23:01;19.60;;;13.25;;
2438;SDS011;14509;47.992;7.848;2024-03-08T09:25:04;17.60;;;12.18;;
2438;SDS011;14509;47.992;7.848;2024-03-08T09:27:08;19.45;;;13.85;;
2438;SDS011;14509;47.992;7.848;2024-03-08T09:29:10;18.38;;;13.38;;
2438;SDS011;14509;47.992;7.848;2024-03-08T09:31:12;18.40;;;12.75;;
2438;SDS011;14509;47.992;7.848;2024-03-08T09:33:15;18.50;;;12.65;;
2438;SDS011;14509;47.992;7.848;2024-03-08T09:35:19;16.88;;;12.23;;
2438;SDS011;14509;47.992;7.848;2024-03-08T09:37:20;16.20;;;12.03;;
2438;SDS011;14509;47.992;7.848;2024-03-08T09:39:22;16.92;;;13.10;;
2438;SDS011;14509;47.992;7.848;2024-03-08T09:41:24;18.45;;;12.05;;
2438;SDS011;14509;47.992;7.848;2024-03-08T09:43:29;17.38;;;12.30;;
2438;SDS011;14509;47.992;7.848;2024-03-08T09:45:31;20.30;;;13.50;;
2438;SDS011;14509;47.992;7.848;2024-03-08T09:47:39;19.53;;;13.07;;
2438;SDS011;14509;47.992;7.848;2024-03-08T09:49:42;18.17;;;12.90;;
2438;SDS011;14509;47.992;7.848;2024-03-08T09:51:44;16.10;;;10.80;;
2438;SDS011;14509;47.992;7.848;2024-03-08T09:53:46;17.33;;;11.63;;
2438;SDS011;14509;47.992;7.848;2024-03-08T09:55:47;15.45;;;11.10;;
2438;SDS011;14509;47.992;7.848;2024-03-08T09:57:49;18.80;;;12.40;;
2438;SDS011;14509;47.992;7.848;2024-03-08T10:00:13;16.23;;;11.13;;
2438;SDS011;14509;47.992;7.848;2024-03-08T10:02:24;16.58;;;10.93;;
2438;SDS011;14509;47.992;7.848;2024-03-08T10:04:25;16.77;;;11.85;;
2438;SDS011;14509;47.992;7.848;2024-03-08T10:06:28;14.93;;;10.85;;
2438;SDS011;14509;47.992;7.848;2024-03-08T10:08:31;15.90;;;11.50;;
2438;SDS011;14509;47.992;7.848;2024-03-08T10:10:33;16.70;;;11.67;;
2438;SDS011;14509;47.992;7.848;2024-03-08T10:12:35;16.58;;;11.52;;
2438;SDS011;14509;47.992;7.848;2024-03-08T10:14:40;15.15;;;11.30;;
2438;SDS011;14509;47.992;7.848;2024-03-08T10:16:44;15.05;;;11.15;;
2438;SDS011;14509;47.992;7.848;2024-03-08T10:18:47;14.88;;;11.55;;
2438;SDS011;14509;47.992;7.848;2024-03-08T10:21:01;15.23;;;11.20;;
2438;SDS011;14509;47.992;7.848;2024-03-08T10:23:05;17.23;;;11.65;;
2438;SDS011;14509;47.992;7.848;2024-03-08T10:25:09;14.93;;;10.98;;
2438;SDS011;14509;47.992;7.848;2024-03-08T10:27:11;15.20;;;11.75;;
2438;SDS011;14509;47.992;7.848;2024-03-08T10:29:13;15.80;;;11.65;;
2438;SDS011;14509;47.992;7.848;2024-03-08T10:31:15;16.02;;;11.20;;
2438;SDS011;14509;47.992;7.848;2024-03-08T10:33:20;17.90;;;12.05;;
2438;SDS011;14509;47.992;7.848;2024-03-08T10:35:21;15.15;;;10.85;;
2438;SDS011;14509;47.992;7.848;2024-03-08T10:37:24;16.60;;;11.77;;
2438;SDS011;14509;47.992;7.848;2024-03-08T10:39:28;16.83;;;11.85;;
2438;SDS011;14509;47.992;7.848;2024-03-08T10:41:35;14.20;;;10.57;;
2438;SDS011;14509;47.992;7.848;2024-03-08T10:43:43;14.50;;;10.57;;
2438;SDS011;14509;47.992;7.848;2024-03-08T10:45:59;19.27;;;12.00;;
2438;SDS011;14509;47.992;7.848;2024-03-08T10:48:17;17.10;;;11.80;;
2438;SDS011;14509;47.992;7.848;2024-03-08T10:50:31;15.50;;;11.13;;
2438;SDS011;14509;47.992;7.848;2024-03-08T10:52:35;15.88;;;12.38;;
2438;SDS011;14509;47.992;7.848;2024-03-08T10:54:37;16.23;;;11.45;;
2438;SDS011;14509;47.992;7.848;2024-03-08T10:56:40;15.10;;;10.43;;
2438;SDS011;14509;47.992;7.848;2024-03-08T10:58:42;14.60;;;12.02;;
2438;SDS011;14509;47.992;7.848;2024-03-08T11:00:45;15.25;;;10.35;;
2438;SDS011;14509;47.992;7.848;2024-03-08T11:02:50;16.88;;;11.57;;
2438;SDS011;14509;47.992;7.848;2024-03-08T11:04:52;14.35;;;10.65;;
2438;SDS011;14509;47.992;7.848;2024-03-08T11:07:00;14.07;;;10.90;;
2438;SDS011;14509;47.992;7.848;2024-03-08T11:09:08;15.27;;;11.20;;
2438;SDS011;14509;47.992;7.848;2024-03-08T11:11:26;15.70;;;11.55;;
2438;SDS011;14509;47.992;7.848;2024-03-08T11:13:32;16.20;;;12.15;;
2438;SDS011;14509;47.992;7.848;2024-03-08T11:15:35;20.40;;;11.77;;
2438;SDS011;14509;47.992;7.848;2024-03-08T11:17:44;15.00;;;10.97;;
2438;SDS011;14509;47.992;7.848;2024-03-08T11:19:48;14.85;;;10.85;;
2438;SDS011;14509;47.992;7.848;2024-03-08T11:21:57;14.35;;;9.98;;
2438;SDS011;14509;47.992;7.848;2024-03-08T11:24:06;14.50;;;10.65;;
2438;SDS011;14509;47.992;7.848;2024-03-08T11:26:18;15.45;;;10.77;;
2438;SDS011;14509;47.992;7.848;2024-03-08T11:28:21;13.57;;;10.50;;
2438;SDS011;14509;47.992;7.848;2024-03-08T11:30:27;14.73;;;11.00;;
2438;SDS011;14509;47.992;7.848;2024-03-08T11:32:29;13.60;;;10.35;;
2438;SDS011;14509;47.992;7.848;2024-03-08T11:34:32;14.32;;;9.98;;
2438;SDS011;14509;47.992;7.848;2024-03-08T11:36:33;12.95;;;10.50;;
2438;SDS011;14509;47.992;7.848;2024-03-08T11:38:41;14.27;;;10.77;;
2438;SDS011;14509;47.992;7.848;2024-03-08T11:40:44;16.63;;;11.10;;
2438;SDS011;14509;47.992;7.848;2024-03-08T11:42:49;14.43;;;10.43;;
2438;SDS011;14509;47.992;7.848;2024-03-08T11:44:52;15.30;;;11.13;;
2438;SDS011;14509;47.992;7.848;2024-03-08T11:46:54;16.05;;;11.05;;
2438;SDS011;14509;47.992;7.848;2024-03-08T11:48:56;14.45;;;10.75;;
2438;SDS011;14509;47.992;7.848;2024-03-08T11:50:59;15.60;;;11.38;;
2438;SDS011;14509;47.992;7.848;2024-03-08T11:53:02;15.27;;;10.70;;
2438;SDS011;14509;47.992;7.848;2024-03-08T11:55:06;15.20;;;10.55;;
2438;SDS011;14509;47.992;7.848;2024-03-08T11:57:08;15.65;;;10.63;;
2438;SDS011;14509;47.992;7.848;2024-03-08T11:59:11;17.63;;;10.70;;
2438;SDS011;14509;47.992;7.848;2024-03-08T12:01:13;15.93;;;11.82;;
2438;SDS011;14509;47.992;7.848;2024-03-08T12:03:17;17.25;;;11.23;;
2438;SDS011;14509;47.992;7.848;2024-03-08T12:05:19;14.95;;;10.73;;
2438;SDS011;14509;47.992;7.848;2024-03-08T12:07:21;15.05;;;10.20;;
2438;SDS011;14509;47.992;7.848;2024-03-08T12:09:23;15.35;;;11.70;;
2438;SDS011;14509;47.992;7.848;2024-03-08T12:11:27;15.90;;;12.00;;
2438;SDS011;14509;47.992;7.848;2024-03-08T12:13:29;19.15;;;12.10;;